Time;durP1;ratioP1;P1;durP2;ratioP2;P2;SDS_P1;SDS_P2;PMS_P1;PMS_P2;Temp;Humidity;BMP_temperature;BMP_pressure;BME280_temperature;BME280_humidity;BME280_pressure;Samples;Min_cycle;Max_cycle;Signal;HPM_P1;HPM_P2
2022/07/15 00:00:33;;;;;;;11.70;3.87;;;21.00;56.30;;;;;;5068160;28;20272;-93
2022/07/15 00:03:26;;;;;;;11.80;4.30;;;21.00;56.40;;;;;;5048586;28;20253;-91
2022/07/15 00:05:52;;;;;;;14.23;4.63;;;20.90;56.40;;;;;;5058538;28;21075;-90
2022/07/15 00:08:19;;;;;;;30.00;9.13;;;20.90;56.20;;;;;;5074931;23;20813;-90
2022/07/15 00:10:46;;;;;;;11.57;3.73;;;20.90;56.30;;;;;;5087231;28;20271;-90
2022/07/15 00:13:15;;;;;;;13.37;4.07;;;20.90;56.30;;;;;;5085921;28;20291;-91
2022/07/15 00:15:45;;;;;;;14.03;4.30;;;20.90;56.30;;;;;;5086949;28;20216;-91
2022/07/15 00:18:16;;;;;;;10.97;4.37;;;20.80;56.20;;;;;;5086508;28;20290;-90
2022/07/15 00:20:44;;;;;;;14.33;4.27;;;20.80;56.30;;;;;;5088849;28;20233;-91
2022/07/15 00:23:12;;;;;;;9.83;3.47;;;20.80;56.30;;;;;;5090955;28;20201;-91
2022/07/15 00:25:39;;;;;;;13.27;4.27;;;20.80;56.30;;;;;;5093887;28;20202;-90
2022/07/15 00:28:07;;;;;;;11.53;4.27;;;20.80;56.30;;;;;;5089984;28;20302;-90
2022/07/15 00:30:38;;;;;;;15.37;4.50;;;20.70;56.20;;;;;;5084415;22;20235;-90
2022/07/15 00:33:36;;;;;;;11.10;3.43;;;20.70;56.10;;;;;;5068626;28;20211;-91
2022/07/15 00:36:03;;;;;;;12.93;4.07;;;20.70;56.20;;;;;;5066184;28;20293;-90
2022/07/15 00:38:30;;;;;;;12.37;3.80;;;20.70;56.10;;;;;;5066655;28;20561;-91
2022/07/15 00:40:57;;;;;;;11.70;3.80;;;20.60;56.10;;;;;;5066257;28;20277;-91
2022/07/15 00:43:25;;;;;;;16.90;4.70;;;20.60;56.20;;;;;;5065440;28;20207;-92
2022/07/15 00:45:54;;;;;;;12.60;3.57;;;20.60;56.60;;;;;;5066120;28;20215;-91
2022/07/15 00:48:23;;;;;;;12.13;4.03;;;20.50;56.60;;;;;;5064923;28;20702;-91
2022/07/15 00:50:50;;;;;;;12.10;3.30;;;20.60;56.90;;;;;;5066900;28;20219;-92
2022/07/15 00:55:47;;;;;;;12.43;4.40;;;20.40;57.00;;;;;;5072678;22;20234;-90
2022/07/15 00:58:17;;;;;;;17.83;5.50;;;20.40;57.00;;;;;;5067597;28;20235;-93
2022/07/15 01:00:59;;;;;;;11.47;3.70;;;20.30;57.20;;;;;;5068082;28;20273;-92
2022/07/15 01:03:29;;;;;;;13.87;4.70;;;20.30;57.50;;;;;;5068323;28;20249;-91
2022/07/15 01:06:06;;;;;;;15.37;4.87;;;20.30;57.20;;;;;;5065273;28;20255;-90
2022/07/15 01:08:54;;;;;;;12.90;4.03;;;20.20;57.20;;;;;;5059689;28;20215;-91
2022/07/15 01:11:22;;;;;;;14.83;4.97;;;20.10;57.80;;;;;;5066292;28;20444;-89
2022/07/15 01:13:50;;;;;;;9.93;3.60;;;20.10;57.30;;;;;;5066447;28;20210;-91
2022/07/15 01:16:18;;;;;;;17.73;5.30;;;20.10;57.50;;;;;;5066557;28;20281;-91
2022/07/15 01:18:46;;;;;;;10.77;3.57;;;20.00;57.60;;;;;;5066817;28;20303;-90
2022/07/15 01:21:32;;;;;;;12.60;4.20;;;20.00;57.50;;;;;;5063834;28;20202;-91
2022/07/15 01:24:00;;;;;;;12.20;4.03;;;19.90;57.60;;;;;;5049006;28;20207;-90
2022/07/15 01:26:29;;;;;;;9.70;3.73;;;19.90;57.50;;;;;;5064381;28;20217;-90
2022/07/15 01:28:56;;;;;;;10.70;4.43;;;19.90;57.70;;;;;;5072959;28;20199;-90
2022/07/15 01:31:23;;;;;;;10.57;3.73;;;19.90;57.70;;;;;;5075979;28;20184;-90
2022/07/15 01:33:53;;;;;;;50.97;14.10;;;19.80;57.40;;;;;;5078918;22;20238;-91
2022/07/15 01:36:23;;;;;;;7.47;2.60;;;19.80;57.40;;;;;;5080750;28;20200;-91
2022/07/15 01:38:50;;;;;;;8.57;3.10;;;19.80;57.60;;;;;;5087475;28;20224;-90
2022/07/15 01:41:17;;;;;;;6.87;2.97;;;19.70;57.50;;;;;;5099874;28;20203;-91
2022/07/15 01:43:55;;;;;;;10.87;3.90;;;19.70;57.60;;;;;;5097186;28;20218;-90
2022/07/15 01:46:23;;;;;;;9.47;3.63;;;19.70;57.90;;;;;;5080163;28;20227;-92
2022/07/15 01:49:31;;;;;;;7.80;3.40;;;19.70;58.10;;;;;;5079871;28;20235;-91
2022/07/15 01:52:02;;;;;;;13.60;4.40;;;19.60;58.20;;;;;;5082726;28;20203;-91
2022/07/15 01:54:30;;;;;;;12.47;4.27;;;19.60;57.80;;;;;;5078800;28;20209;-92
2022/07/15 01:56:58;;;;;;;12.00;4.03;;;19.60;58.00;;;;;;5089924;28;20233;-92
2022/07/15 01:59:41;;;;;;;12.47;4.37;;;19.50;58.10;;;;;;5078045;28;20198;-92
2022/07/15 02:02:08;;;;;;;8.00;3.03;;;19.40;58.40;;;;;;5078436;28;20214;-94
2022/07/15 02:04:36;;;;;;;12.33;3.83;;;19.40;58.10;;;;;;5063767;28;20206;-93
2022/07/15 02:07:38;;;;;;;11.27;3.80;;;19.40;58.10;;;;;;5062021;28;20226;-90
2022/07/15 02:10:06;;;;;;;13.67;4.30;;;19.40;58.70;;;;;;5069890;28;20204;-90
2022/07/15 02:12:36;;;;;;;20.83;6.10;;;19.30;58.10;;;;;;5069310;28;20238;-90
2022/07/15 02:15:05;;;;;;;16.40;3.93;;;19.30;58.30;;;;;;5085686;28;20829;-89
2022/07/15 02:17:35;;;;;;;14.07;4.60;;;19.20;58.20;;;;;;5076455;28;20241;-90
2022/07/15 02:20:02;;;;;;;23.57;6.33;;;19.20;58.30;;;;;;5082579;22;20201;-91
2022/07/15 02:22:38;;;;;;;15.73;4.67;;;19.10;58.10;;;;;;5051071;28;20237;-92
2022/07/15 02:25:07;;;;;;;9.90;3.77;;;19.10;58.50;;;;;;5070584;28;20292;-91
2022/07/15 02:27:34;;;;;;;8.67;3.23;;;19.00;58.40;;;;;;5071407;28;20213;-91
2022/07/15 02:32:27;;;;;;;14.17;4.13;;;18.90;58.20;;;;;;5084815;22;20238;-89
2022/07/15 02:34:54;;;;;;;11.93;4.30;;;18.90;58.40;;;;;;5086452;28;20295;-90
2022/07/15 02:37:34;;;;;;;12.13;4.30;;;18.80;58.50;;;;;;5082857;28;20222;-89
2022/07/15 02:40:03;;;;;;;12.47;3.90;;;18.70;58.90;;;;;;5074777;28;20286;-89
2022/07/15 02:42:33;;;;;;;12.77;3.87;;;18.70;58.90;;;;;;5068312;28;20211;-90
2022/07/15 02:45:02;;;;;;;9.37;3.37;;;18.60;58.80;;;;;;5069457;28;20213;-89
2022/07/15 02:47:30;;;;;;;14.40;4.00;;;18.60;58.80;;;;;;5072344;28;20287;-90
2022/07/15 02:50:01;;;;;;;12.10;3.97;;;18.60;58.80;;;;;;5068654;28;20189;-90
2022/07/15 02:52:53;;;;;;;12.77;4.33;;;18.50;59.30;;;;;;5068967;28;20660;-89
2022/07/15 02:55:22;;;;;;;15.97;4.70;;;18.50;60.00;;;;;;5069331;28;20214;-89
2022/07/15 02:58:08;;;;;;;27.77;8.47;;;18.40;59.50;;;;;;5067738;28;20260;-90
2022/07/15 03:00:35;;;;;;;12.63;4.27;;;18.40;59.70;;;;;;5070522;28;20609;-91
2022/07/15 03:03:02;;;;;;;15.40;5.07;;;18.40;59.30;;;;;;5071475;28;20234;-90
2022/07/15 03:05:29;;;;;;;11.83;4.07;;;18.30;59.40;;;;;;5070693;28;20228;-91
2022/07/15 03:07:56;;;;;;;15.87;4.97;;;18.30;59.50;;;;;;5067829;28;20573;-91
2022/07/15 03:10:35;;;;;;;20.50;5.87;;;18.20;59.60;;;;;;5067752;28;20313;-89
2022/07/15 03:13:02;;;;;;;15.33;4.53;;;18.20;59.70;;;;;;5067206;28;20204;-89
2022/07/15 03:15:52;;;;;;;10.20;3.77;;;18.20;59.50;;;;;;5068525;28;20254;-91
2022/07/15 03:18:19;;;;;;;15.03;4.30;;;18.20;60.60;;;;;;5067725;28;20294;-89
2022/07/15 03:20:46;;;;;;;12.30;3.60;;;18.10;59.90;;;;;;5057658;28;20243;-89
2022/07/15 03:23:17;;;;;;;11.50;4.20;;;18.10;60.10;;;;;;5057927;28;20208;-90
2022/07/15 03:25:46;;;;;;;14.00;4.03;;;18.10;60.30;;;;;;5068442;28;20272;-90
2022/07/15 03:28:13;;;;;;;16.60;5.30;;;18.10;60.40;;;;;;5066196;28;20213;-90
2022/07/15 03:30:41;;;;;;;10.90;3.73;;;18.00;60.20;;;;;;5068413;28;20214;-91
2022/07/15 03:33:10;;;;;;;11.40;3.90;;;18.00;60.30;;;;;;5074570;28;20203;-90
2022/07/15 03:35:37;;;;;;;12.80;4.13;;;18.00;60.50;;;;;;5089429;28;20206;-90
2022/07/15 03:38:04;;;;;;;12.97;4.17;;;18.00;60.60;;;;;;5081425;28;20301;-89
2022/07/15 03:40:57;;;;;;;18.67;5.73;;;17.90;60.60;;;;;;5068066;28;20200;-89
2022/07/15 03:43:26;;;;;;;14.80;4.77;;;17.90;61.40;;;;;;5078585;28;20290;-91
2022/07/15 03:45:55;;;;;;;15.07;4.67;;;17.90;60.60;;;;;;5081513;28;20212;-91
2022/07/15 03:48:26;;;;;;;9.83;2.90;;;17.90;61.00;;;;;;5076526;28;20205;-90
2022/07/15 03:51:15;;;;;;;11.03;3.80;;;17.80;61.20;;;;;;5073023;28;20200;-90
2022/07/15 03:53:43;;;;;;;9.60;3.53;;;17.80;61.20;;;;;;5039754;28;20551;-92
2022/07/15 03:56:11;;;;;;;11.20;4.03;;;17.80;60.90;;;;;;5068652;28;20250;-90
2022/07/15 03:58:44;;;;;;;18.17;5.27;;;17.80;61.10;;;;;;5067486;28;20622;-90
2022/07/15 04:01:12;;;;;;;12.43;3.97;;;17.80;61.70;;;;;;5084116;28;20606;-89
2022/07/15 04:03:40;;;;;;;12.67;4.50;;;17.80;61.50;;;;;;5083739;28;20623;-89
2022/07/15 04:06:07;;;;;;;7.97;3.23;;;17.80;61.80;;;;;;5068967;28;20229;-90
2022/07/15 04:08:36;;;;;;;11.50;4.10;;;17.80;61.80;;;;;;5067979;28;20295;-90
2022/07/15 04:11:05;;;;;;;10.33;3.87;;;17.80;62.00;;;;;;5068476;28;20319;-90
2022/07/15 04:13:33;;;;;;;25.17;7.40;;;17.90;63.00;;;;;;5068356;28;20254;-89
2022/07/15 04:16:01;;;;;;;14.73;5.03;;;17.80;61.80;;;;;;5069291;28;20200;-91
2022/07/15 04:18:43;;;;;;;14.13;5.00;;;17.90;61.60;;;;;;5067854;28;20310;-91
2022/07/15 04:21:12;;;;;;;7.97;3.33;;;17.90;62.20;;;;;;5048596;28;20205;-89
2022/07/15 04:23:52;;;;;;;14.93;4.57;;;17.90;61.50;;;;;;5068616;28;20297;-90
2022/07/15 04:26:19;;;;;;;11.30;3.43;;;17.90;62.10;;;;;;5048547;28;20219;-91
2022/07/15 04:28:48;;;;;;;9.90;3.97;;;17.90;61.50;;;;;;5050775;28;20199;-89
2022/07/15 04:31:22;;;;;;;15.87;4.80;;;17.90;61.80;;;;;;5066810;28;20254;-90
2022/07/15 04:33:50;;;;;;;13.13;5.13;;;17.90;61.80;;;;;;5068453;28;20191;-90
2022/07/15 04:36:17;;;;;;;9.50;3.43;;;17.90;61.80;;;;;;5068360;28;20652;-89
2022/07/15 04:38:46;;;;;;;9.60;3.97;;;17.90;61.80;;;;;;5068230;28;21144;-91
2022/07/15 04:41:14;;;;;;;11.87;3.93;;;17.90;61.90;;;;;;5048261;28;20707;-91
2022/07/15 04:43:41;;;;;;;34.83;10.80;;;17.90;62.00;;;;;;5057202;22;20268;-89
2022/07/15 04:46:12;;;;;;;11.07;4.33;;;17.90;61.80;;;;;;5050015;28;20263;-90
2022/07/15 04:51:37;;;;;;;18.37;6.40;;;17.90;62.10;;;;;;5072656;28;20200;-92
2022/07/15 04:54:05;;;;;;;13.70;4.73;;;17.90;62.60;;;;;;5069865;28;20222;-90
2022/07/15 04:56:34;;;;;;;14.97;4.73;;;17.90;62.10;;;;;;5079186;28;20194;-87
2022/07/15 04:59:01;;;;;;;10.13;4.20;;;18.00;62.30;;;;;;5076349;28;20217;-90
2022/07/15 05:01:36;;;;;;;21.80;6.47;;;18.00;62.10;;;;;;5070010;28;20283;-89
2022/07/15 05:04:10;;;;;;;11.77;4.37;;;18.00;62.80;;;;;;5068329;28;20615;-90
2022/07/15 05:06:43;;;;;;;9.07;3.63;;;18.00;62.40;;;;;;5068439;28;20716;-89
2022/07/15 05:09:11;;;;;;;12.33;4.10;;;18.00;62.40;;;;;;5051397;28;20301;-89
2022/07/15 05:11:38;;;;;;;11.90;4.47;;;18.10;62.70;;;;;;5069268;28;20213;-90
2022/07/15 05:14:10;;;;;;;13.60;4.77;;;18.10;62.40;;;;;;5074542;28;20215;-92
2022/07/15 05:16:38;;;;;;;14.93;5.13;;;18.20;62.40;;;;;;5081900;28;20676;-89
2022/07/15 05:19:11;;;;;;;8.63;3.47;;;18.20;62.30;;;;;;5076860;28;20236;-91
2022/07/15 05:21:43;;;;;;;11.43;4.43;;;18.20;62.80;;;;;;5074010;28;20231;-90
2022/07/15 05:24:25;;;;;;;12.43;4.33;;;18.30;63.00;;;;;;5066101;28;20200;-89
2022/07/15 05:26:55;;;;;;;13.90;5.00;;;18.30;62.60;;;;;;5069481;28;20204;-89
2022/07/15 05:29:22;;;;;;;13.33;4.83;;;18.40;62.60;;;;;;5070773;28;20263;-90
2022/07/15 05:31:51;;;;;;;11.37;4.23;;;18.40;63.40;;;;;;5066756;28;20241;-91
2022/07/15 05:34:18;;;;;;;11.63;4.17;;;18.50;62.70;;;;;;5071342;28;20288;-91
2022/07/15 05:36:49;;;;;;;14.03;4.63;;;18.50;62.40;;;;;;5070297;28;20228;-89
2022/07/15 05:39:16;;;;;;;13.53;5.17;;;18.60;62.60;;;;;;5067884;28;20302;-90
2022/07/15 05:41:43;;;;;;;17.03;6.03;;;18.60;63.00;;;;;;5069306;28;20612;-90
2022/07/15 05:44:25;;;;;;;13.40;5.13;;;18.60;62.90;;;;;;5069766;28;20220;-90
2022/07/15 05:47:08;;;;;;;10.97;4.63;;;18.70;63.90;;;;;;5068673;28;20259;-90
2022/07/15 05:49:42;;;;;;;18.30;6.57;;;18.80;63.60;;;;;;5069476;28;20216;-90
2022/07/15 05:52:09;;;;;;;14.87;5.10;;;18.80;63.20;;;;;;5070207;28;20197;-89
2022/07/15 05:54:49;;;;;;;13.43;4.70;;;18.80;63.00;;;;;;5069879;28;20197;-91
2022/07/15 05:57:17;;;;;;;16.63;5.20;;;18.90;63.40;;;;;;5069534;28;20272;-89
2022/07/15 05:59:44;;;;;;;19.53;5.87;;;19.00;62.70;;;;;;5069579;28;20214;-90
2022/07/15 06:02:13;;;;;;;16.07;5.33;;;19.10;62.90;;;;;;5067127;28;20206;-90
2022/07/15 06:04:42;;;;;;;18.30;5.83;;;19.10;62.90;;;;;;5068603;28;20581;-90
2022/07/15 06:07:09;;;;;;;10.07;3.77;;;19.20;62.80;;;;;;5070607;28;20976;-91
2022/07/15 06:09:36;;;;;;;10.90;3.77;;;19.20;62.60;;;;;;5069492;28;21015;-91
2022/07/15 06:12:03;;;;;;;14.30;4.77;;;19.30;62.70;;;;;;5068552;28;20394;-90
2022/07/15 06:14:31;;;;;;;10.87;3.90;;;19.40;62.60;;;;;;5068102;28;20226;-90
2022/07/15 06:16:58;;;;;;;13.60;4.87;;;19.40;62.20;;;;;;5061320;28;20238;-92
2022/07/15 06:19:27;;;;;;;10.87;3.90;;;19.50;62.20;;;;;;5058544;28;20987;-90
2022/07/15 06:21:54;;;;;;;11.07;4.03;;;19.50;62.10;;;;;;5059188;28;20209;-90
2022/07/15 06:24:21;;;;;;;9.30;3.40;;;19.60;62.10;;;;;;5057854;28;20280;-89
2022/07/15 06:26:48;;;;;;;12.57;3.70;;;19.70;62.20;;;;;;5060868;28;20253;-92
2022/07/15 06:29:15;;;;;;;11.53;3.67;;;19.70;62.10;;;;;;5058294;28;20211;-91
2022/07/15 06:31:42;;;;;;;12.93;4.33;;;19.80;62.00;;;;;;5058726;28;20678;-91
2022/07/15 06:34:10;;;;;;;11.70;3.77;;;19.90;62.00;;;;;;5057684;28;20297;-91
2022/07/15 06:36:38;;;;;;;12.03;4.23;;;19.90;61.80;;;;;;5058001;28;20201;-92
2022/07/15 06:39:09;;;;;;;15.50;4.63;;;20.00;61.70;;;;;;5058439;28;20268;-90
2022/07/15 06:41:36;;;;;;;14.00;4.30;;;20.00;61.70;;;;;;5057917;28;20235;-90
2022/07/15 06:44:04;;;;;;;13.83;4.53;;;20.10;61.60;;;;;;5056903;28;20287;-89
2022/07/15 06:46:34;;;;;;;10.63;3.67;;;20.20;61.40;;;;;;5057703;28;20196;-90
2022/07/15 06:49:01;;;;;;;10.03;3.37;;;20.20;61.30;;;;;;5057651;28;20203;-90
2022/07/15 06:51:28;;;;;;;12.30;4.03;;;20.30;61.50;;;;;;5058527;28;20192;-91
2022/07/15 06:53:56;;;;;;;8.03;3.27;;;20.40;61.50;;;;;;5058332;28;20231;-91
2022/07/15 06:56:24;;;;;;;13.67;4.63;;;20.40;61.20;;;;;;5056823;28;20200;-90
2022/07/15 06:58:54;;;;;;;8.30;3.40;;;20.50;61.10;;;;;;5058859;28;20237;-93
2022/07/15 07:01:25;;;;;;;11.63;3.97;;;20.60;61.10;;;;;;5060123;28;20191;-91
2022/07/15 07:03:55;;;;;;;11.20;3.83;;;20.60;61.60;;;;;;5061812;28;20227;-89
2022/07/15 07:06:23;;;;;;;10.77;2.97;;;20.70;60.70;;;;;;5061962;28;20303;-92
2022/07/15 07:08:52;;;;;;;20.07;6.20;;;20.80;60.30;;;;;;5058252;28;20246;-88
2022/07/15 07:11:21;;;;;;;13.90;4.43;;;20.80;60.30;;;;;;5058216;28;20207;-88
2022/07/15 07:16:29;;;;;;;11.60;4.33;;;21.00;60.10;;;;;;5058187;28;20203;-89
2022/07/15 07:18:59;;;;;;;10.00;3.63;;;21.10;60.10;;;;;;5068339;28;20231;-88
2022/07/15 07:21:26;;;;;;;8.70;3.07;;;21.10;60.80;;;;;;5064839;28;20209;-90
2022/07/15 07:23:53;;;;;;;11.27;3.80;;;21.20;60.00;;;;;;5069401;28;20199;-88
2022/07/15 07:26:21;;;;;;;8.10;3.03;;;21.20;59.70;;;;;;5068666;28;20970;-90
2022/07/15 07:28:51;;;;;;;12.40;4.50;;;21.30;59.60;;;;;;5067912;28;20215;-89
2022/07/15 07:31:22;;;;;;;8.13;3.40;;;21.40;59.60;;;;;;5068291;28;20200;-89
2022/07/15 07:33:55;;;;;;;10.20;3.70;;;21.40;59.40;;;;;;5068564;28;20200;-89
2022/07/15 07:36:22;;;;;;;11.67;3.93;;;21.50;59.40;;;;;;5067314;28;20286;-89
2022/07/15 07:38:49;;;;;;;16.40;5.70;;;21.50;59.10;;;;;;5069780;28;20679;-87
2022/07/15 07:41:16;;;;;;;12.10;3.30;;;21.60;59.10;;;;;;5071168;28;20231;-87
2022/07/15 07:43:45;;;;;;;13.17;4.87;;;21.60;59.00;;;;;;5079872;28;20206;-88
2022/07/15 07:46:14;;;;;;;8.43;3.50;;;21.70;59.10;;;;;;5080383;28;20207;-87
2022/07/15 07:48:47;;;;;;;10.17;3.40;;;21.70;58.90;;;;;;5079928;28;20215;-88
2022/07/15 07:51:14;;;;;;;10.23;4.10;;;21.70;58.60;;;;;;5078608;28;20204;-87
2022/07/15 07:53:41;;;;;;;8.20;3.30;;;21.80;58.80;;;;;;5076660;28;20204;-88
2022/07/15 07:56:09;;;;;;;7.10;3.00;;;21.80;58.80;;;;;;5077033;28;20879;-89
2022/07/15 07:58:38;;;;;;;10.07;4.20;;;21.90;58.70;;;;;;5070189;28;20215;-87
2022/07/15 08:01:08;;;;;;;9.53;3.17;;;21.90;58.70;;;;;;5054279;28;20208;-89
2022/07/15 08:03:35;;;;;;;9.47;3.10;;;21.90;58.60;;;;;;5052542;28;20310;-89
2022/07/15 08:06:02;;;;;;;11.47;3.53;;;22.00;58.50;;;;;;5050264;28;20261;-87
2022/07/15 08:08:29;;;;;;;8.90;3.57;;;22.00;58.30;;;;;;5048810;28;20281;-87
2022/07/15 08:10:57;;;;;;;8.73;3.37;;;22.00;58.20;;;;;;5053605;28;20215;-89
2022/07/15 08:13:28;;;;;;;10.33;3.90;;;22.10;58.30;;;;;;5068597;28;20215;-89
2022/07/15 08:15:57;;;;;;;10.70;3.93;;;22.20;58.20;;;;;;5068142;28;20207;-87
2022/07/15 08:18:25;;;;;;;9.70;3.57;;;22.20;58.10;;;;;;5067710;28;20681;-88
2022/07/15 08:20:53;;;;;;;11.07;4.37;;;22.30;58.10;;;;;;5068470;28;20228;-89
2022/07/15 08:23:21;;;;;;;7.77;3.20;;;22.30;58.20;;;;;;5067835;28;20224;-87
2022/07/15 08:25:50;;;;;;;9.63;3.50;;;22.40;58.20;;;;;;5060989;28;20641;-88
2022/07/15 08:28:17;;;;;;;9.33;3.67;;;22.50;57.70;;;;;;5048775;28;20283;-88
2022/07/15 08:30:45;;;;;;;7.80;3.00;;;22.50;57.60;;;;;;5067021;28;20200;-90
2022/07/15 08:33:12;;;;;;;7.77;2.90;;;22.60;57.00;;;;;;5068233;28;20204;-89
2022/07/15 08:35:41;;;;;;;9.33;3.27;;;22.60;56.70;;;;;;5067932;28;20239;-89
2022/07/15 08:38:09;;;;;;;9.70;3.40;;;22.70;56.60;;;;;;5067263;28;20212;-88
2022/07/15 08:40:40;;;;;;;10.60;4.17;;;22.80;56.60;;;;;;5068654;28;20238;-90
2022/07/15 08:43:10;;;;;;;7.80;3.40;;;22.90;56.30;;;;;;5056909;28;20201;-90
2022/07/15 08:45:38;;;;;;;8.90;3.83;;;23.00;56.90;;;;;;5070333;28;20224;-89
2022/07/15 08:48:07;;;;;;;9.60;4.13;;;23.10;56.60;;;;;;5067048;28;20223;-89
2022/07/15 08:50:36;;;;;;;7.73;3.17;;;23.30;56.40;;;;;;5070907;28;20304;-89
2022/07/15 08:53:05;;;;;;;8.70;3.07;;;23.40;56.70;;;;;;5071112;28;20700;-91
2022/07/15 08:55:33;;;;;;;7.77;3.30;;;23.60;56.60;;;;;;5068275;28;20210;-91
2022/07/15 08:58:00;;;;;;;8.90;3.53;;;23.80;56.50;;;;;;5064266;28;20214;-89
2022/07/15 09:00:29;;;;;;;5.70;2.73;;;24.00;56.50;;;;;;5070862;28;20326;-89
2022/07/15 09:03:06;;;;;;;7.73;3.23;;;24.30;56.30;;;;;;5070540;28;20219;-89
2022/07/15 09:05:34;;;;;;;9.23;3.80;;;24.40;55.70;;;;;;5069293;28;20223;-89
2022/07/15 09:08:05;;;;;;;10.93;3.57;;;24.60;55.90;;;;;;5060440;28;20211;-89
2022/07/15 09:10:48;;;;;;;8.00;3.30;;;24.80;55.30;;;;;;5051332;28;20219;-91
2022/07/15 09:13:25;;;;;;;7.43;3.03;;;25.00;55.10;;;;;;5050380;28;20199;-89
2022/07/15 09:15:54;;;;;;;9.57;3.60;;;25.20;53.60;;;;;;5050140;28;20199;-89
2022/07/15 09:18:23;;;;;;;7.00;3.00;;;25.30;54.20;;;;;;5051147;28;20208;-89
2022/07/15 09:20:50;;;;;;;8.37;3.77;;;25.40;53.60;;;;;;5055486;28;20227;-90
2022/07/15 09:23:29;;;;;;;5.67;2.70;;;25.50;53.40;;;;;;5067661;28;20203;-90
2022/07/15 09:25:59;;;;;;;5.87;2.50;;;25.50;52.90;;;;;;5071063;28;20228;-89
2022/07/15 09:28:44;;;;;;;9.30;3.87;;;25.60;53.10;;;;;;5070934;28;20203;-91
2022/07/15 09:34:01;;;;;;;11.20;4.07;;;25.60;52.90;;;;;;5061309;28;20202;-89
2022/07/15 09:36:31;;;;;;;4.37;2.10;;;25.70;52.50;;;;;;5069535;28;20207;-89
2022/07/15 09:39:02;;;;;;;6.87;2.93;;;25.70;52.60;;;;;;5068484;28;20226;-90
2022/07/15 09:41:34;;;;;;;6.57;2.90;;;25.80;52.30;;;;;;5071195;28;20204;-88
2022/07/15 09:44:08;;;;;;;7.83;3.30;;;25.80;51.60;;;;;;5064260;28;20208;-89
2022/07/15 09:46:47;;;;;;;10.63;4.73;;;25.90;51.20;;;;;;5063546;28;20202;-91
2022/07/15 09:49:17;;;;;;;5.70;2.70;;;26.00;50.70;;;;;;5068981;28;20250;-88
2022/07/15 09:51:50;;;;;;;7.17;2.90;;;26.10;51.40;;;;;;5068978;28;20206;-91
2022/07/15 09:54:19;;;;;;;8.03;3.37;;;26.30;50.90;;;;;;5067860;28;20199;-88
2022/07/15 09:56:48;;;;;;;10.00;3.50;;;26.30;51.20;;;;;;5051385;28;20643;-90
2022/07/15 09:59:18;;;;;;;7.07;2.93;;;26.40;50.90;;;;;;5070757;28;20228;-90
2022/07/15 10:01:47;;;;;;;8.90;3.53;;;26.50;50.30;;;;;;5069409;28;20218;-91
2022/07/15 10:04:16;;;;;;;6.37;2.97;;;26.60;50.10;;;;;;5069072;28;20200;-89
2022/07/15 10:06:44;;;;;;;5.50;2.57;;;26.70;49.90;;;;;;5068497;28;20917;-91
2022/07/15 10:09:12;;;;;;;6.27;2.90;;;26.90;50.10;;;;;;5067921;28;20207;-92
2022/07/15 10:11:45;;;;;;;11.23;4.87;;;26.90;49.60;;;;;;5065207;28;20305;-92
2022/07/15 10:14:34;;;;;;;4.47;2.30;;;27.00;49.30;;;;;;5059519;28;20214;-89
2022/07/15 10:17:32;;;;;;;5.70;2.30;;;27.10;48.90;;;;;;5070528;28;20770;-87
2022/07/15 10:20:32;;;;;;;4.43;2.40;;;27.30;49.40;;;;;;5069792;28;20942;-91
2022/07/15 10:23:07;;;;;;;4.13;2.10;;;27.40;48.90;;;;;;5062756;28;20199;-91
2022/07/15 10:26:06;;;;;;;9.00;3.57;;;27.60;48.60;;;;;;5063016;28;20699;-88
2022/07/15 10:28:49;;;;;;;11.13;4.93;;;27.80;48.10;;;;;;5058468;28;20242;-89
2022/07/15 10:31:20;;;;;;;5.53;2.10;;;27.80;48.00;;;;;;5062338;28;20222;-90
2022/07/15 10:34:24;;;;;;;6.80;3.10;;;27.90;48.40;;;;;;5060605;28;20188;-89
2022/07/15 10:37:01;;;;;;;8.07;3.87;;;28.00;47.00;;;;;;5067535;28;20287;-86
2022/07/15 10:39:49;;;;;;;4.33;2.20;;;28.00;47.40;;;;;;5077751;28;20262;-89
2022/07/15 10:42:18;;;;;;;7.63;3.60;;;28.00;46.40;;;;;;5067225;28;20557;-88
2022/07/15 10:45:07;;;;;;;5.60;2.77;;;28.00;47.50;;;;;;5058746;28;20238;-90
2022/07/15 10:47:35;;;;;;;6.33;3.03;;;28.00;46.60;;;;;;5060246;28;20261;-89
2022/07/15 10:50:25;;;;;;;6.47;3.20;;;27.90;47.80;;;;;;5056400;28;20200;-90
2022/07/15 10:53:17;;;;;;;7.60;3.30;;;27.90;47.90;;;;;;5058489;28;20199;-90
2022/07/15 10:55:44;;;;;;;9.33;3.20;;;27.90;46.40;;;;;;5060443;28;20261;-92
2022/07/15 10:58:18;;;;;;;8.20;3.63;;;27.90;47.50;;;;;;5061391;28;20620;-90
2022/07/15 11:00:47;;;;;;;13.63;5.60;;;27.90;47.00;;;;;;5063646;28;20535;-90
2022/07/15 11:03:17;;;;;;;9.80;4.13;;;27.80;46.70;;;;;;5058480;28;20334;-90
2022/07/15 11:06:06;;;;;;;13.00;5.77;;;27.80;47.10;;;;;;5057706;28;20207;-91
2022/07/15 11:08:58;;;;;;;8.07;3.87;;;27.70;46.80;;;;;;5057552;28;20238;-89
2022/07/15 11:11:48;;;;;;;7.47;3.40;;;27.60;46.40;;;;;;5056570;28;20246;-93
2022/07/15 11:14:44;;;;;;;11.07;4.90;;;27.60;46.70;;;;;;5059547;28;20203;-93
2022/07/15 11:17:16;;;;;;;6.87;2.67;;;27.50;46.10;;;;;;5060804;28;20295;-94
2022/07/15 11:19:46;;;;;;;6.87;2.63;;;27.50;47.30;;;;;;5067589;28;20216;-89
2022/07/15 11:22:13;;;;;;;11.83;5.13;;;27.40;47.30;;;;;;5066606;28;20210;-93
2022/07/15 11:24:43;;;;;;;9.17;3.57;;;27.40;47.20;;;;;;5076706;28;20199;-93
2022/07/15 11:27:11;;;;;;;7.83;3.00;;;27.40;46.60;;;;;;5073343;28;20310;-90
2022/07/15 11:30:01;;;;;;;6.13;2.37;;;27.30;46.50;;;;;;5069760;28;20213;-93
2022/07/15 11:32:31;;;;;;;6.90;3.30;;;27.30;46.40;;;;;;5072136;28;20648;-90
2022/07/15 11:37:41;;;;;;;4.40;2.53;;;27.30;46.60;;;;;;5059424;28;20207;-92
2022/07/15 11:44:29;;;;;;;9.40;3.90;;;27.30;46.60;;;;;;5065977;28;20230;-89
2022/07/15 11:45:47;;;;;;;9.70;3.93;;;27.40;46.40;;;;;;5067919;28;20237;-90
2022/07/15 11:48:21;;;;;;;14.60;5.57;;;27.40;46.30;;;;;;5067495;28;20660;-91
2022/07/15 11:50:57;;;;;;;7.10;2.93;;;27.40;46.60;;;;;;5071030;28;20235;-94
2022/07/15 11:53:28;;;;;;;8.30;3.47;;;27.50;46.20;;;;;;5076487;28;20199;-95
2022/07/15 11:55:57;;;;;;;7.93;3.70;;;27.70;46.20;;;;;;5088479;28;20257;-90
2022/07/15 11:58:36;;;;;;;7.30;3.80;;;27.70;46.20;;;;;;5088434;28;20200;-92
2022/07/15 12:01:05;;;;;;;7.07;3.27;;;27.80;45.80;;;;;;5059599;28;20233;-92
2022/07/15 12:03:42;;;;;;;8.03;3.20;;;27.90;46.30;;;;;;5071303;28;20203;-88
2022/07/15 12:06:16;;;;;;;6.50;3.00;;;27.90;45.90;;;;;;5065056;28;20285;-92
2022/07/15 12:08:48;;;;;;;8.97;3.30;;;28.00;45.90;;;;;;5067857;28;20204;-89
2022/07/15 12:11:27;;;;;;;10.63;4.63;;;28.10;46.20;;;;;;5059853;28;20204;-89
2022/07/15 12:13:57;;;;;;;9.20;4.00;;;28.20;45.60;;;;;;5057657;28;20207;-88
2022/07/15 12:16:29;;;;;;;11.47;5.00;;;28.20;45.70;;;;;;5065005;28;20227;-89
2022/07/15 12:18:58;;;;;;;7.20;3.00;;;28.30;44.80;;;;;;5064667;28;20640;-92
2022/07/15 12:21:29;;;;;;;9.60;4.50;;;28.40;45.80;;;;;;5066426;28;20235;-89
2022/07/15 12:24:08;;;;;;;6.53;3.27;;;28.50;45.90;;;;;;5061849;28;20443;-90
2022/07/15 12:26:38;;;;;;;7.10;3.53;;;28.60;44.80;;;;;;5065124;28;20203;-89
2022/07/15 12:29:09;;;;;;;5.87;3.00;;;28.70;44.60;;;;;;5060865;28;20310;-88
2022/07/15 12:31:38;;;;;;;8.37;4.10;;;28.70;44.50;;;;;;5049163;28;20214;-88
2022/07/15 12:34:11;;;;;;;12.17;5.10;;;28.80;44.90;;;;;;5058270;28;20203;-88
2022/07/15 12:36:49;;;;;;;6.90;3.40;;;28.80;43.20;;;;;;5065809;28;20204;-91
2022/07/15 12:39:25;;;;;;;10.07;3.70;;;28.90;44.00;;;;;;5067741;28;20950;-89
2022/07/15 12:42:02;;;;;;;8.73;3.60;;;29.00;43.90;;;;;;5065395;28;20280;-91
2022/07/15 12:44:30;;;;;;;8.93;3.73;;;29.10;43.30;;;;;;5067343;28;20215;-89
2022/07/15 12:46:59;;;;;;;7.60;3.73;;;29.20;43.40;;;;;;5062856;28;20219;-92
2022/07/15 12:49:45;;;;;;;10.23;3.60;;;29.20;43.30;;;;;;5067419;28;20200;-91
2022/07/15 12:52:26;;;;;;;10.30;4.43;;;29.20;42.40;;;;;;5064823;28;20207;-90
2022/07/15 12:54:55;;;;;;;9.90;4.43;;;29.30;43.20;;;;;;5067547;28;20203;-88
2022/07/15 12:57:29;;;;;;;13.33;5.70;;;29.30;43.00;;;;;;5073326;28;20223;-89
2022/07/15 12:59:58;;;;;;;8.73;2.83;;;29.40;43.10;;;;;;5070447;28;20288;-88
2022/07/15 13:02:33;;;;;;;5.57;2.87;;;29.40;43.30;;;;;;5073409;28;20227;-89
2022/07/15 13:05:05;;;;;;;8.43;3.53;;;29.50;43.40;;;;;;5071015;28;20612;-91
2022/07/15 13:07:32;;;;;;;8.40;3.97;;;29.60;42.80;;;;;;5064742;28;21412;-89
2022/07/15 13:12:42;;;;;;;9.10;3.83;;;29.70;42.50;;;;;;5064667;28;20278;-92
2022/07/15 13:15:11;;;;;;;11.20;4.70;;;29.80;42.90;;;;;;5078880;28;20198;-93
2022/07/15 13:20:28;;;;;;;11.33;3.40;;;29.80;42.20;;;;;;5073014;28;20253;-92
2022/07/15 13:22:59;;;;;;;5.23;2.40;;;29.90;42.30;;;;;;5069736;28;20199;-94
2022/07/15 13:25:27;;;;;;;13.90;5.43;;;29.90;42.60;;;;;;5061477;28;20192;-93
2022/07/15 13:30:49;;;;;;;8.53;2.80;;;30.00;41.80;;;;;;5074669;22;20280;-96